Aérodrome :
LOGIN :

S'inscrire | Disclaimer

   EN    FR    IT 

 










Légende :    VFR   VFR Marginal   IFR   IFR Intensif   IFR Très Intensif
Visi : 
Plafond : 
>= 8 km
>= 3000ft
5 à 8 km
1000 à 3000 ft
1500m à 5 km
500 à 1000 ft
800 à 1500m
200 à 500 ft
< 800m
< 200 ft
Symboles :   Orages  Brouillard  Fortes neiges  Fortes précipitations  Vent > 20 kt
SIGMETs :   Divers  Orages  Givrage  Turbulence  Onde Orograph.  Cendres Volcan.







- Altitude de l'aérodrome : 200 ft


EBBL - Klein Brogel AB

DERNIER METAR :
  • 230155Z AUTO 25008KT 9999 BKN079/// BKN120/// BKN180/// 16/08 Q1013 BLU

METARs EXPIRÉS :
  • 230125Z AUTO 25008KT 9999 BKN064/// BKN120/// BKN170/// 17/09 Q1012 BLU
  • 230055Z AUTO 24008KT 9999 SCT064/// BKN078/// 17/09 Q1012 BLU
  • 230025Z AUTO 25009KT 9999 FEW057/// BKN088/// 17/09 Q1012 BLU
  • 222355Z AUTO 24008KT 9999 FEW056/// BKN085/// 18/10 Q1012 BLU
  • 222325Z AUTO 24005KT 9999 BKN091/// 18/11 Q1012 BLU
  • 222255Z AUTO 26006KT 9999 BKN094/// 18/11 Q1012 BLU

TAF TAF EBBL
Valide du 22 à 19h jusqu'au 23 à 07h UTC


221541Z 2219/2307 27008KT 9999 SCT040 SCT140
TEMPO 2219/2220 VRB10G20KT 6000 -SHRA SCT040
PROB40
TEMPO 2213/2220 VRB15G25KT 4000 SHRA -TSRA SCT050 SCT070
PROB30
TEMPO 2213/2220 VRB20G30KT 3000 TSRA TSGR +SHRA FEW012 SCT030CB BKN050
TEMPO 2301/2305 5000 -RA SCT015 BKN050
PROB30
TEMPO 2305/2307 BKN010
Pas de NOTAMs connus pour ce terrain.



MET'MAP, la Météo Aéronautique d'un coup d'oeil ! - Copyright ORBIFLY Décembre 2007 - Disclaimer

ORBIFLY MET'MAP TEAM :

Programmation & Développement : Alexandra Zaïnal
Conception & Développement : Baudouin d'Aumeries
Co-Programmation & Développement : Marc-Olivier Méhu
Soutien technique & logistique : Manuel Goepfert

Contact : metmap@orbifly.com




SOURCES & CREDITS :

   NOAA